Time;durP1;ratioP1;P1;durP2;ratioP2;P2;SDS_P1;SDS_P2;PMS_P1;PMS_P2;Temp;Humidity;BMP_temperature;BMP_pressure;BME280_temperature;BME280_humidity;BME280_pressure;Samples;Min_cycle;Max_cycle;Signal;HPM_P1;HPM_P2
2022/01/25 00:24:17;;;;;;;21.37;13.33;;;;;;;3.78;100.00;102888.47;5079294;27;20241;-51
2022/01/25 00:24:46;;;;;;;18.60;11.80;;;;;;;3.79;100.00;102892.88;5075539;28;20695;-51
2022/01/25 00:27:26;;;;;;;20.83;12.83;;;;;;;3.83;100.00;102887.06;5077269;27;20320;-51
2022/01/25 00:30:11;;;;;;;18.90;12.23;;;;;;;3.82;100.00;102869.66;5077007;28;20222;-51
2022/01/25 00:32:38;;;;;;;17.77;12.17;;;;;;;3.85;100.00;102873.25;5073902;28;20256;-52
2022/01/25 00:35:06;;;;;;;19.80;12.90;;;;;;;3.82;100.00;102872.25;5078374;28;20604;-51
2022/01/25 00:37:32;;;;;;;17.93;12.23;;;;;;;3.82;100.00;102873.97;5076211;28;20250;-52
2022/01/25 00:39:59;;;;;;;19.63;12.30;;;;;;;3.81;100.00;102865.28;5077808;28;20283;-52
2022/01/25 00:42:25;;;;;;;18.07;12.47;;;;;;;3.79;100.00;102869.50;5080599;28;20262;-50
2022/01/25 00:44:53;;;;;;;18.50;13.20;;;;;;;3.77;100.00;102865.91;5080240;27;20238;-50
2022/01/25 00:47:20;;;;;;;18.20;13.67;;;;;;;3.78;100.00;102856.41;5075213;28;20291;-52
2022/01/25 00:49:52;;;;;;;17.67;12.07;;;;;;;3.80;100.00;102855.69;5074904;28;20252;-52
2022/01/25 00:52:32;;;;;;;17.80;13.20;;;;;;;3.78;100.00;102851.22;5076604;28;20231;-52
2022/01/25 00:55:00;;;;;;;18.30;13.37;;;;;;;3.76;100.00;102852.84;5078503;28;20893;-51
2022/01/25 00:57:27;;;;;;;17.67;12.90;;;;;;;3.76;100.00;102847.63;5082924;28;20239;-51
2022/01/25 00:59:53;;;;;;;20.40;13.83;;;;;;;3.80;100.00;102850.50;5078323;28;20260;-52
2022/01/25 01:02:19;;;;;;;19.70;12.70;;;;;;;3.85;100.00;102842.09;5080183;28;20331;-54
2022/01/25 01:04:46;;;;;;;19.43;13.10;;;;;;;3.89;100.00;102838.88;5077023;28;20254;-53
2022/01/25 01:07:15;;;;;;;20.63;13.10;;;;;;;3.90;100.00;102836.38;5072312;28;20239;-52
2022/01/25 01:09:48;;;;;;;19.93;13.30;;;;;;;3.92;100.00;102837.34;5079528;28;20313;-53
2022/01/25 01:12:26;;;;;;;18.63;11.87;;;;;;;3.94;100.00;102838.34;5071844;28;20348;-53
2022/01/25 01:15:03;;;;;;;20.30;12.13;;;;;;;3.93;100.00;102840.84;5082955;27;20227;-51
2022/01/25 01:31:21;;;;;;;16.03;11.73;;;;;;;4.02;100.00;102831.00;5072763;27;20377;-53
2022/01/25 01:34:22;;;;;;;17.47;12.67;;;;;;;4.05;100.00;102836.38;5083700;27;20242;-52
2022/01/25 01:45:31;;;;;;;17.70;11.47;;;;;;;3.99;100.00;102844.69;5079321;27;20249;-52
2022/01/25 01:48:03;;;;;;;17.53;11.93;;;;;;;3.94;100.00;102833.16;5079713;28;20250;-52
2022/01/25 01:50:33;;;;;;;17.43;11.80;;;;;;;3.98;100.00;102835.13;5083219;27;20242;-52
2022/01/25 01:53:00;;;;;;;15.77;11.73;;;;;;;4.03;100.00;102832.78;5080627;28;20305;-50
2022/01/25 01:55:27;;;;;;;18.07;12.33;;;;;;;3.96;100.00;102839.31;5082721;27;20366;-49
2022/01/25 01:57:56;;;;;;;21.20;13.47;;;;;;;3.94;100.00;102832.25;5083117;28;20258;-51
2022/01/25 02:00:25;;;;;;;16.57;13.30;;;;;;;3.93;100.00;102835.63;5080543;27;20942;-52
2022/01/25 02:02:51;;;;;;;17.20;13.37;;;;;;;3.90;100.00;102830.28;5077403;28;20716;-52
2022/01/25 02:05:18;;;;;;;16.03;13.43;;;;;;;3.84;100.00;102830.81;5076392;28;20230;-52
2022/01/25 02:07:44;;;;;;;19.23;12.93;;;;;;;3.94;100.00;102824.47;5076825;28;20259;-53
2022/01/25 02:10:11;;;;;;;19.53;13.17;;;;;;;3.95;100.00;102818.44;5078108;28;20438;-52
2022/01/25 02:12:37;;;;;;;18.53;12.53;;;;;;;3.92;100.00;102824.34;5083527;28;20291;-51
2022/01/25 02:15:06;;;;;;;18.80;12.30;;;;;;;3.85;100.00;102829.09;5076829;28;20311;-52
2022/01/25 02:17:54;;;;;;;21.17;14.97;;;;;;;3.83;100.00;102829.00;5077962;28;20239;-52
2022/01/25 02:23:14;;;;;;;24.77;13.63;;;;;;;3.83;100.00;102822.13;5075244;28;20311;-53
2022/01/25 02:25:41;;;;;;;23.97;15.03;;;;;;;3.77;100.00;102819.13;5075802;28;20239;-51
2022/01/25 02:28:07;;;;;;;26.80;14.27;;;;;;;3.86;100.00;102815.28;5076672;28;20323;-51
2022/01/25 02:30:33;;;;;;;24.80;15.17;;;;;;;3.79;100.00;102821.81;5081128;28;20630;-50
2022/01/25 02:33:00;;;;;;;26.43;15.13;;;;;;;3.71;100.00;102812.69;5076152;27;20331;-50
2022/01/25 02:35:27;;;;;;;21.60;14.73;;;;;;;3.65;100.00;102813.22;5081221;28;20237;-51
2022/01/25 02:37:54;;;;;;;29.03;15.30;;;;;;;3.70;100.00;102808.28;5078730;28;20245;-52
2022/01/25 02:40:20;;;;;;;27.07;15.63;;;;;;;3.68;100.00;102818.56;5076521;27;20557;-51
2022/01/25 02:42:46;;;;;;;26.13;15.17;;;;;;;3.65;100.00;102813.22;5076603;27;20324;-52
2022/01/25 02:45:16;;;;;;;26.60;16.80;;;;;;;3.65;100.00;102814.88;5074669;28;20942;-52
2022/01/25 02:50:28;;;;;;;25.27;16.37;;;;;;;3.69;100.00;102811.69;5075411;28;20933;-52
2022/01/25 02:52:54;;;;;;;23.50;14.37;;;;;;;3.71;100.00;102808.38;5078693;28;20238;-53
2022/01/25 02:55:21;;;;;;;26.50;15.47;;;;;;;3.64;100.00;102801.00;5076202;27;20298;-50
2022/01/25 02:57:47;;;;;;;28.13;18.00;;;;;;;3.61;100.00;102798.22;5079662;27;20252;-51
2022/01/25 03:00:15;;;;;;;26.10;16.53;;;;;;;3.54;100.00;102799.56;5079114;27;20329;-52
2022/01/25 03:02:41;;;;;;;26.10;15.03;;;;;;;3.56;100.00;102794.47;5077857;28;20291;-54
2022/01/25 03:05:09;;;;;;;23.27;15.33;;;;;;;3.44;100.00;102797.22;5068361;28;20234;-52
2022/01/25 03:07:38;;;;;;;33.67;16.97;;;;;;;3.42;100.00;102797.94;5077680;28;20266;-52
2022/01/25 03:10:05;;;;;;;35.50;16.70;;;;;;;3.46;100.00;102799.91;5076711;28;20599;-49
2022/01/25 03:12:38;;;;;;;31.47;17.80;;;;;;;3.44;100.00;102801.50;5077277;28;20762;-51
2022/01/25 03:15:24;;;;;;;27.43;15.93;;;;;;;3.38;100.00;102795.94;5078906;27;20317;-52
2022/01/25 03:17:55;;;;;;;31.53;16.40;;;;;;;3.43;100.00;102799.72;5077779;27;20234;-52
2022/01/25 03:20:33;;;;;;;29.47;16.27;;;;;;;3.46;100.00;102792.13;5078623;27;20253;-53
2022/01/25 03:23:05;;;;;;;31.17;16.77;;;;;;;3.43;100.00;102785.03;5074195;28;20584;-52
2022/01/25 03:25:32;;;;;;;32.17;17.70;;;;;;;3.38;100.00;102785.56;5073258;28;20236;-53
2022/01/25 03:27:59;;;;;;;28.00;16.97;;;;;;;3.42;100.00;102787.53;5080741;28;20254;-52
2022/01/25 03:30:26;;;;;;;29.63;18.57;;;;;;;3.33;100.00;102793.03;5075922;28;20253;-51
2022/01/25 03:32:53;;;;;;;34.77;18.20;;;;;;;3.31;100.00;102798.16;5079409;28;20229;-52
2022/01/25 03:35:19;;;;;;;29.30;17.43;;;;;;;3.43;100.00;102789.31;5079043;28;20298;-52
2022/01/25 03:37:46;;;;;;;28.67;17.57;;;;;;;3.38;100.00;102802.03;5075641;28;20318;-53
2022/01/25 03:40:14;;;;;;;34.30;18.23;;;;;;;3.30;100.00;102808.44;5078756;28;20406;-52
2022/01/25 03:42:40;;;;;;;31.87;18.23;;;;;;;3.38;100.00;102806.34;5076397;28;20229;-53
2022/01/25 03:45:08;;;;;;;31.07;18.17;;;;;;;3.34;100.00;102803.53;5078456;28;20236;-52
2022/01/25 03:47:45;;;;;;;30.97;17.50;;;;;;;3.29;100.00;102796.25;5078823;28;20242;-51
2022/01/25 03:50:11;;;;;;;27.00;17.43;;;;;;;3.33;100.00;102786.19;5077686;28;20233;-52
2022/01/25 03:52:37;;;;;;;28.30;18.20;;;;;;;3.42;100.00;102790.13;5077437;28;20702;-52
2022/01/25 03:55:04;;;;;;;26.17;16.10;;;;;;;3.44;100.00;102797.22;5077841;28;20612;-52
2022/01/25 03:57:32;;;;;;;33.97;19.30;;;;;;;3.38;100.00;102791.66;5072292;28;20258;-52
2022/01/25 04:00:00;;;;;;;25.20;16.30;;;;;;;3.32;100.00;102781.78;5079867;28;20796;-53
2022/01/25 04:02:27;;;;;;;25.57;14.90;;;;;;;3.29;100.00;102776.38;5074431;28;20281;-52
2022/01/25 04:04:54;;;;;;;24.73;16.00;;;;;;;3.33;100.00;102768.00;5074023;28;20345;-49
2022/01/25 04:07:28;;;;;;;26.30;15.40;;;;;;;3.32;100.00;102771.38;5071975;28;20737;-51
2022/01/25 04:09:54;;;;;;;27.07;13.67;;;;;;;3.31;100.00;102776.50;5081907;28;20952;-53
2022/01/25 04:12:21;;;;;;;25.57;15.23;;;;;;;3.39;100.00;102775.25;5070018;28;20394;-52
2022/01/25 04:14:49;;;;;;;28.77;15.90;;;;;;;3.43;100.00;102776.34;5077526;28;20725;-53
2022/01/25 04:17:19;;;;;;;27.83;15.23;;;;;;;3.42;100.00;102771.97;5081137;27;20251;-53
2022/01/25 04:19:58;;;;;;;26.67;14.73;;;;;;;3.39;100.00;102766.56;5082984;28;20311;-53
2022/01/25 04:25:13;;;;;;;25.53;14.70;;;;;;;3.46;100.00;102753.16;5079735;27;20335;-51
2022/01/25 04:27:40;;;;;;;24.40;15.87;;;;;;;3.57;100.00;102746.91;5082100;28;20386;-52
2022/01/25 04:30:09;;;;;;;23.40;13.93;;;;;;;3.53;100.00;102740.63;5083281;27;20253;-52
2022/01/25 04:32:43;;;;;;;22.40;12.70;;;;;;;3.52;100.00;102749.25;5082457;27;20254;-52
2022/01/25 04:35:24;;;;;;;26.47;14.37;;;;;;;3.53;100.00;102750.13;5075100;28;20246;-53
2022/01/25 04:49:11;;;;;;;21.10;13.13;;;;;;;3.65;100.00;102749.97;5067442;28;20306;-51
2022/01/25 04:51:51;;;;;;;24.53;13.07;;;;;;;3.74;100.00;102745.31;5078761;28;20313;-51
2022/01/25 04:54:29;;;;;;;21.07;13.73;;;;;;;3.57;100.00;102746.91;5079168;28;20291;-50
2022/01/25 04:57:05;;;;;;;22.73;13.23;;;;;;;3.65;100.00;102748.28;5076598;28;20239;-52
2022/01/25 04:59:38;;;;;;;23.50;13.50;;;;;;;3.60;100.00;102752.28;5078510;28;20252;-53
2022/01/25 05:02:11;;;;;;;21.57;12.23;;;;;;;3.69;100.00;102757.16;5082682;28;20687;-51
2022/01/25 05:04:42;;;;;;;21.73;14.27;;;;;;;3.63;100.00;102749.00;5082462;28;20714;-49
2022/01/25 05:07:20;;;;;;;21.50;13.03;;;;;;;3.62;100.00;102755.00;5078023;28;20234;-51
2022/01/25 05:09:47;;;;;;;21.83;14.63;;;;;;;3.56;100.00;102763.31;5081795;28;20304;-51
2022/01/25 05:12:14;;;;;;;23.53;13.83;;;;;;;3.61;100.00;102758.38;5081594;28;20328;-51
2022/01/25 05:14:56;;;;;;;22.73;13.40;;;;;;;3.69;100.00;102752.84;5076653;28;20690;-50
2022/01/25 05:17:32;;;;;;;22.57;13.37;;;;;;;3.65;100.00;102753.47;5077089;28;20298;-51
2022/01/25 05:22:39;;;;;;;26.60;14.63;;;;;;;3.62;100.00;102761.09;5082015;28;20357;-52
2022/01/25 05:25:07;;;;;;;24.63;13.73;;;;;;;3.63;100.00;102749.88;5079534;28;20233;-51
2022/01/25 05:27:33;;;;;;;20.10;12.70;;;;;;;3.57;100.00;102760.78;5082424;28;20233;-49
2022/01/25 05:29:59;;;;;;;21.00;14.03;;;;;;;3.63;100.00;102752.47;5076463;28;20264;-58
2022/01/25 05:32:32;;;;;;;23.70;14.67;;;;;;;3.68;100.00;102758.81;5082138;28;20242;-50
2022/01/25 05:34:58;;;;;;;21.00;12.77;;;;;;;3.66;100.00;102763.06;5079567;28;20789;-53
2022/01/25 05:37:24;;;;;;;19.07;12.87;;;;;;;3.69;100.00;102768.44;5082190;27;20860;-51
2022/01/25 05:39:52;;;;;;;27.13;15.37;;;;;;;3.64;100.00;102766.34;5082859;28;20668;-50
2022/01/25 05:42:41;;;;;;;18.40;12.00;;;;;;;3.69;100.00;102773.63;5079992;28;20778;-52
2022/01/25 05:45:19;;;;;;;24.33;13.80;;;;;;;3.68;100.00;102777.00;5078313;28;20305;-49
2022/01/25 05:47:47;;;;;;;24.07;13.33;;;;;;;3.83;100.00;102770.16;5076926;28;20728;-53
2022/01/25 05:50:13;;;;;;;28.33;15.43;;;;;;;3.79;100.00;102769.84;5076859;28;20227;-51
2022/01/25 05:52:40;;;;;;;19.37;13.13;;;;;;;3.74;100.00;102777.38;5072816;28;20786;-53
2022/01/25 05:55:08;;;;;;;21.67;14.33;;;;;;;3.78;100.00;102774.16;5079732;28;20364;-52
2022/01/25 05:57:34;;;;;;;23.57;14.13;;;;;;;3.81;100.00;102776.06;5074174;28;20731;-50
2022/01/25 06:00:01;;;;;;;22.07;13.27;;;;;;;3.72;100.00;102773.81;5081573;28;20289;-51
2022/01/25 06:02:30;;;;;;;24.27;14.37;;;;;;;3.78;100.00;102774.16;5072780;28;20227;-48
2022/01/25 06:04:58;;;;;;;23.23;13.10;;;;;;;3.73;100.00;102770.41;5074582;28;20219;-51
2022/01/25 06:07:26;;;;;;;24.00;13.07;;;;;;;3.79;100.00;102780.25;5078232;28;20516;-52
2022/01/25 06:09:53;;;;;;;22.00;11.93;;;;;;;3.67;100.00;102764.84;5079701;28;20685;-52
2022/01/25 06:12:19;;;;;;;24.57;14.13;;;;;;;3.63;100.00;102768.06;5079523;28;20299;-50
2022/01/25 06:14:45;;;;;;;30.47;15.17;;;;;;;3.62;100.00;102771.47;5079388;28;20246;-52
2022/01/25 06:17:12;;;;;;;21.37;13.77;;;;;;;3.61;100.00;102769.66;5076672;28;20234;-52
2022/01/25 06:19:38;;;;;;;23.30;13.53;;;;;;;3.58;100.00;102764.31;5079411;28;20238;-49
2022/01/25 06:22:06;;;;;;;23.03;14.07;;;;;;;3.57;100.00;102767.69;5078021;28;20904;-51
2022/01/25 06:24:32;;;;;;;24.77;14.03;;;;;;;3.59;100.00;102766.09;5074048;28;20557;-51
2022/01/25 06:26:59;;;;;;;25.37;14.33;;;;;;;3.62;100.00;102776.66;5080600;28;20238;-51
2022/01/25 06:29:25;;;;;;;19.87;13.77;;;;;;;3.63;100.00;102777.56;5079675;28;20295;-51
2022/01/25 06:31:51;;;;;;;24.80;15.07;;;;;;;3.58;100.00;102779.88;5080537;28;20246;-52
2022/01/25 06:34:18;;;;;;;25.53;15.13;;;;;;;3.56;100.00;102782.38;5078511;28;20279;-50
2022/01/25 06:36:46;;;;;;;26.53;16.63;;;;;;;3.67;100.00;102771.75;5070746;28;20647;-50
2022/01/25 06:39:14;;;;;;;28.07;15.27;;;;;;;3.69;100.00;102763.25;5078328;28;20230;-51
2022/01/25 06:41:40;;;;;;;24.77;14.93;;;;;;;3.57;100.00;102767.69;5074011;28;20261;-51
2022/01/25 06:44:07;;;;;;;23.47;15.40;;;;;;;3.58;100.00;102753.91;5077477;27;20757;-52
2022/01/25 06:46:34;;;;;;;25.80;15.00;;;;;;;3.56;100.00;102759.00;5081609;28;20319;-53
2022/01/25 06:49:00;;;;;;;30.27;16.33;;;;;;;3.55;100.00;102767.59;5079084;28;20262;-50
2022/01/25 06:51:28;;;;;;;25.30;15.17;;;;;;;3.56;100.00;102771.09;5079748;28;20295;-52
2022/01/25 06:53:54;;;;;;;26.17;16.20;;;;;;;3.47;100.00;102770.53;5081378;28;20900;-51
2022/01/25 06:56:22;;;;;;;33.53;16.53;;;;;;;3.48;100.00;102778.44;5078230;27;20258;-52
2022/01/25 06:58:48;;;;;;;25.37;15.37;;;;;;;3.37;100.00;102775.97;5081280;27;20242;-54
2022/01/25 07:01:17;;;;;;;31.77;17.73;;;;;;;3.41;100.00;102772.78;5074191;28;20223;-52
2022/01/25 07:03:44;;;;;;;26.00;16.33;;;;;;;3.37;100.00;102773.38;5080002;28;20240;-55
2022/01/25 07:06:10;;;;;;;27.97;15.20;;;;;;;3.42;100.00;102772.84;5079433;27;20229;-50
2022/01/25 07:08:36;;;;;;;32.57;16.87;;;;;;;3.43;100.00;102776.34;5077381;28;20431;-51
2022/01/25 07:11:03;;;;;;;28.63;17.20;;;;;;;3.37;100.00;102782.06;5078528;27;20660;-53
2022/01/25 07:13:30;;;;;;;30.50;17.53;;;;;;;3.29;100.00;102781.56;5078241;27;20261;-53
2022/01/25 07:15:57;;;;;;;26.40;16.80;;;;;;;3.29;100.00;102784.19;5077633;27;20834;-53
2022/01/25 07:18:23;;;;;;;31.00;17.20;;;;;;;3.44;100.00;102781.66;5076351;28;20784;-53
2022/01/25 07:20:49;;;;;;;36.57;18.73;;;;;;;3.40;100.00;102782.22;5078934;28;20817;-50
2022/01/25 07:23:16;;;;;;;32.77;16.70;;;;;;;3.32;100.00;102786.97;5074122;28;20650;-52
2022/01/25 07:25:42;;;;;;;31.00;17.13;;;;;;;3.37;100.00;102786.34;5080805;28;20635;-52
2022/01/25 07:28:09;;;;;;;26.00;16.40;;;;;;;3.37;100.00;102783.75;5077753;28;20617;-53
2022/01/25 07:30:36;;;;;;;32.47;18.83;;;;;;;3.22;100.00;102781.13;5078498;27;20334;-53
2022/01/25 07:33:05;;;;;;;32.37;18.90;;;;;;;3.31;100.00;102780.00;5080171;28;20234;-51
2022/01/25 07:35:32;;;;;;;34.43;19.13;;;;;;;3.42;100.00;102777.16;5076736;28;20297;-52
2022/01/25 07:37:59;;;;;;;31.23;18.53;;;;;;;3.34;100.00;102781.88;5079268;28;20418;-54
2022/01/25 07:40:25;;;;;;;32.50;17.73;;;;;;;3.23;100.00;102785.50;5074909;28;20693;-52
2022/01/25 07:42:51;;;;;;;36.90;19.43;;;;;;;3.33;100.00;102786.19;5077769;28;20264;-53
2022/01/25 07:45:18;;;;;;;31.47;19.30;;;;;;;3.34;100.00;102780.19;5078720;27;20715;-51
2022/01/25 07:47:45;;;;;;;32.20;18.77;;;;;;;3.26;100.00;102775.31;5077028;28;20237;-52
2022/01/25 07:50:12;;;;;;;35.50;18.67;;;;;;;3.21;100.00;102784.53;5080522;27;20230;-52
2022/01/25 07:52:39;;;;;;;27.30;17.13;;;;;;;3.18;100.00;102786.91;5079173;28;20325;-53
2022/01/25 07:55:07;;;;;;;30.40;17.67;;;;;;;3.12;100.00;102787.44;5077679;27;20658;-54
2022/01/25 07:57:33;;;;;;;33.23;19.67;;;;;;;3.18;100.00;102782.63;5083461;28;20405;-53
2022/01/25 08:00:00;;;;;;;30.07;16.63;;;;;;;3.15;100.00;102781.53;5085405;28;20231;-53
2022/01/25 08:02:26;;;;;;;38.40;22.73;;;;;;;3.14;100.00;102780.66;5084047;28;20619;-51
2022/01/25 08:04:54;;;;;;;34.03;18.40;;;;;;;3.16;100.00;102784.25;5079216;28;20269;-53
2022/01/25 08:07:21;;;;;;;29.17;17.83;;;;;;;3.23;100.00;102776.03;5080450;28;20241;-50
2022/01/25 08:09:47;;;;;;;34.90;18.70;;;;;;;3.19;100.00;102784.41;5080599;28;20674;-53
2022/01/25 08:12:14;;;;;;;33.23;18.73;;;;;;;3.26;100.00;102783.97;5080964;27;20226;-52
2022/01/25 08:14:43;;;;;;;34.77;20.07;;;;;;;3.14;100.00;102785.84;5078390;28;20229;-52
2022/01/25 08:17:09;;;;;;;37.27;20.07;;;;;;;3.05;100.00;102787.84;5075849;27;20287;-50
2022/01/25 08:19:36;;;;;;;36.17;22.00;;;;;;;3.02;100.00;102787.66;5077574;28;20797;-54
2022/01/25 08:22:04;;;;;;;33.27;18.63;;;;;;;3.04;100.00;102773.97;5077414;28;20236;-53
2022/01/25 08:24:30;;;;;;;35.03;18.50;;;;;;;3.08;100.00;102777.66;5076360;28;20668;-53
2022/01/25 08:26:57;;;;;;;34.33;19.83;;;;;;;3.15;100.00;102765.97;5080364;27;20326;-54
2022/01/25 08:29:23;;;;;;;32.30;19.87;;;;;;;3.25;100.00;102764.03;5075645;28;20256;-53
2022/01/25 08:31:49;;;;;;;30.03;18.30;;;;;;;3.25;100.00;102771.81;5081001;28;20788;-52
2022/01/25 08:34:16;;;;;;;37.73;18.63;;;;;;;3.32;100.00;102771.38;5077220;28;20287;-53
2022/01/25 08:36:42;;;;;;;31.33;19.03;;;;;;;3.48;100.00;102774.94;5075565;28;20235;-53
2022/01/25 08:39:10;;;;;;;30.77;16.80;;;;;;;3.49;100.00;102775.03;5076506;28;20635;-53
2022/01/25 08:41:37;;;;;;;35.70;18.70;;;;;;;3.44;100.00;102775.53;5083588;28;20319;-53
2022/01/25 08:44:03;;;;;;;32.63;19.23;;;;;;;3.58;100.00;102774.69;5082930;28;20295;-53
2022/01/25 08:46:29;;;;;;;28.00;16.97;;;;;;;3.51;100.00;102782.88;5077500;28;20360;-53
2022/01/25 08:48:56;;;;;;;30.07;16.50;;;;;;;3.57;100.00;102783.28;5084062;27;20304;-53
2022/01/25 08:51:23;;;;;;;28.07;17.20;;;;;;;3.67;100.00;102780.41;5082858;28;20258;-54
2022/01/25 08:53:50;;;;;;;31.10;18.13;;;;;;;3.66;100.00;102769.97;5069083;28;20312;-54
2022/01/25 08:56:18;;;;;;;28.13;15.87;;;;;;;3.62;100.00;102771.47;5082145;28;20241;-52
2022/01/25 08:58:44;;;;;;;29.47;17.13;;;;;;;3.68;100.00;102774.41;5081173;27;20321;-53
2022/01/25 09:01:10;;;;;;;33.80;17.30;;;;;;;3.68;100.00;102782.19;5078966;28;20234;-54
2022/01/25 09:03:37;;;;;;;33.90;18.00;;;;;;;3.69;100.00;102778.81;5078976;28;20309;-51
2022/01/25 09:06:04;;;;;;;28.97;17.20;;;;;;;3.68;100.00;102771.81;5074691;28;20231;-52
2022/01/25 09:08:30;;;;;;;37.33;19.37;;;;;;;3.44;100.00;102775.53;5073830;27;20718;-52
2022/01/25 09:11:00;;;;;;;41.97;18.90;;;;;;;3.53;100.00;102770.91;5071552;28;20245;-51
2022/01/25 09:13:29;;;;;;;32.40;18.47;;;;;;;3.62;100.00;102766.28;5073908;28;20578;-54
2022/01/25 09:15:55;;;;;;;38.23;19.73;;;;;;;3.59;100.00;102760.91;5078587;28;20908;-52
2022/01/25 09:18:22;;;;;;;37.67;19.07;;;;;;;3.59;100.00;102766.97;5076365;27;20238;-54
2022/01/25 09:20:49;;;;;;;30.37;18.93;;;;;;;3.69;100.00;102768.44;5080604;28;20253;-53
2022/01/25 09:23:17;;;;;;;36.67;18.27;;;;;;;3.69;100.00;102771.03;5079461;28;20675;-54
2022/01/25 09:25:43;;;;;;;33.30;18.33;;;;;;;3.64;100.00;102766.34;5078562;27;20728;-51
2022/01/25 09:28:10;;;;;;;32.07;19.63;;;;;;;3.62;100.00;102771.47;5077006;27;20278;-53
2022/01/25 09:30:37;;;;;;;31.97;16.43;;;;;;;3.60;100.00;102773.06;5079947;27;20289;-51
2022/01/25 09:33:04;;;;;;;23.93;15.10;;;;;;;3.78;100.00;102774.16;5085084;28;20250;-51
2022/01/25 09:35:30;;;;;;;27.70;15.57;;;;;;;3.76;100.00;102767.09;5085498;28;20247;-50
2022/01/25 09:37:56;;;;;;;32.63;16.97;;;;;;;3.69;100.00;102771.03;5083547;28;20267;-53
2022/01/25 09:40:23;;;;;;;32.53;16.63;;;;;;;3.72;100.00;102773.81;5083698;28;20392;-54
2022/01/25 09:42:52;;;;;;;31.93;16.37;;;;;;;3.71;100.00;102765.91;5084422;28;20865;-52
2022/01/25 09:45:19;;;;;;;28.63;17.07;;;;;;;3.73;100.00;102770.41;5083123;28;20226;-51
2022/01/25 09:47:47;;;;;;;34.50;18.53;;;;;;;3.70;100.00;102766.72;5083438;27;20242;-51
2022/01/25 09:50:14;;;;;;;25.93;14.73;;;;;;;3.88;100.00;102770.41;5069253;28;20239;-49
2022/01/25 09:52:42;;;;;;;26.43;16.20;;;;;;;3.95;100.00;102766.47;5078628;28;20230;-52
2022/01/25 09:55:10;;;;;;;31.50;14.90;;;;;;;3.92;100.00;102767.19;5073724;28;20314;-51
2022/01/25 09:57:37;;;;;;;30.00;16.98;;;;;;;3.98;100.00;102769.25;5074624;28;20466;-54
2022/01/25 10:00:05;;;;;;;24.03;15.30;;;;;;;3.97;100.00;102770.97;5084299;28;20229;-59
2022/01/25 10:02:43;;;;;;;25.17;15.20;;;;;;;3.97;100.00;102770.06;5080425;27;20234;-53
2022/01/25 10:05:24;;;;;;;26.57;16.73;;;;;;;4.08;100.00;102771.59;5082715;27;20739;-53
2022/01/25 10:08:03;;;;;;;29.90;15.37;;;;;;;4.10;100.00;102761.25;5080226;27;20273;-54
2022/01/25 10:10:31;;;;;;;24.83;14.03;;;;;;;3.99;100.00;102763.25;5075850;27;21698;-51
2022/01/25 10:13:07;;;;;;;22.83;13.80;;;;;;;4.08;100.00;102758.59;5069127;28;20231;-52
2022/01/25 10:15:35;;;;;;;24.80;14.60;;;;;;;3.94;100.00;102765.59;5078809;27;20230;-53
2022/01/25 10:18:01;;;;;;;24.87;13.97;;;;;;;4.03;100.00;102752.22;5075974;28;20258;-52
2022/01/25 10:20:31;;;;;;;27.60;16.90;;;;;;;4.03;100.00;102749.63;5082421;27;20243;-53
2022/01/25 10:23:00;;;;;;;26.90;14.97;;;;;;;3.97;100.00;102749.28;5069726;28;20231;-55
2022/01/25 10:25:31;;;;;;;23.30;13.83;;;;;;;3.96;100.00;102748.34;5076726;28;20277;-54
2022/01/25 10:28:02;;;;;;;28.03;14.03;;;;;;;3.98;100.00;102753.66;5082796;27;20266;-53
2022/01/25 10:30:32;;;;;;;23.10;13.30;;;;;;;3.99;100.00;102747.66;5075779;28;20691;-52
2022/01/25 10:33:01;;;;;;;19.23;12.73;;;;;;;4.04;100.00;102748.84;5075663;28;20302;-54
2022/01/25 10:35:29;;;;;;;20.43;11.57;;;;;;;4.09;100.00;102742.19;5075635;28;20984;-52
2022/01/25 10:37:55;;;;;;;19.17;12.77;;;;;;;4.09;100.00;102743.88;5079445;28;20300;-52
2022/01/25 10:40:35;;;;;;;22.03;12.13;;;;;;;4.06;100.00;102745.50;5077270;28;20315;-51
2022/01/25 10:43:02;;;;;;;22.17;13.87;;;;;;;4.05;100.00;102745.41;5080684;28;20278;-52
2022/01/25 10:45:28;;;;;;;23.83;13.37;;;;;;;4.09;100.00;102747.38;5074228;28;20312;-50
2022/01/25 10:47:55;;;;;;;19.17;11.47;;;;;;;4.07;100.00;102738.59;5080182;28;20254;-52
2022/01/25 10:50:23;;;;;;;23.13;11.97;;;;;;;4.16;100.00;102746.03;5070319;28;20242;-53
2022/01/25 10:53:07;;;;;;;19.17;11.40;;;;;;;4.16;100.00;102735.63;5082249;28;20238;-53
2022/01/25 10:55:38;;;;;;;19.53;11.63;;;;;;;4.09;100.00;102742.19;5080799;28;20238;-53
2022/01/25 10:58:05;;;;;;;21.23;12.20;;;;;;;4.18;100.00;102737.53;5076322;28;20566;-52
2022/01/25 11:00:34;;;;;;;22.03;12.43;;;;;;;4.12;100.00;102734.56;5080863;28;20222;-54
2022/01/25 11:03:01;;;;;;;21.73;12.13;;;;;;;4.10;100.00;102741.38;5080804;27;20226;-55
2022/01/25 11:05:31;;;;;;;21.90;12.57;;;;;;;4.20;100.00;102733.28;5072723;28;20261;-51
2022/01/25 11:08:10;;;;;;;21.00;12.67;;;;;;;4.17;100.00;102738.31;5073018;27;20296;-52
2022/01/25 11:10:38;;;;;;;18.93;11.37;;;;;;;4.14;100.00;102730.34;5076301;28;20738;-55
2022/01/25 11:13:21;;;;;;;21.47;12.17;;;;;;;4.17;100.00;102725.31;5079466;28;20908;-54
2022/01/25 11:15:47;;;;;;;19.67;12.70;;;;;;;4.08;100.00;102727.41;5073796;28;20238;-55
2022/01/25 11:18:14;;;;;;;20.87;12.83;;;;;;;4.11;100.00;102717.19;5076795;28;20299;-53
2022/01/25 11:20:40;;;;;;;21.70;12.93;;;;;;;4.19;100.00;102721.09;5071765;28;20329;-51
2022/01/25 11:23:08;;;;;;;22.43;12.60;;;;;;;4.15;100.00;102721.75;5078027;27;20222;-52
2022/01/25 11:25:34;;;;;;;25.43;13.43;;;;;;;4.13;100.00;102705.16;5079823;27;20691;-52
2022/01/25 11:28:01;;;;;;;21.37;12.33;;;;;;;4.27;100.00;102706.81;5080593;28;20640;-54
2022/01/25 11:30:28;;;;;;;20.03;11.47;;;;;;;4.17;100.00;102712.31;5076478;28;20234;-53
2022/01/25 11:32:55;;;;;;;15.57;9.80;;;;;;;4.23;100.00;102710.06;5080059;28;20230;-53
2022/01/25 11:35:23;;;;;;;16.90;10.40;;;;;;;4.19;100.00;102715.00;5076760;27;20229;-49
2022/01/25 11:37:54;;;;;;;17.47;10.33;;;;;;;4.23;100.00;102712.66;5074083;28;20244;-51
2022/01/25 11:40:24;;;;;;;17.17;9.67;;;;;;;4.33;100.00;102710.59;5079322;28;20305;-51
2022/01/25 11:42:52;;;;;;;17.63;9.80;;;;;;;4.38;100.00;102709.13;5076297;28;20257;-53
2022/01/25 11:45:20;;;;;;;17.93;10.00;;;;;;;4.35;100.00;102704.66;5072972;27;20226;-53
2022/01/25 11:47:49;;;;;;;16.63;10.30;;;;;;;4.48;100.00;102714.94;5076391;28;20576;-52
2022/01/25 11:50:15;;;;;;;16.87;10.40;;;;;;;4.49;100.00;102711.53;5071854;28;20311;-52
2022/01/25 11:52:47;;;;;;;16.13;8.80;;;;;;;4.59;100.00;102712.91;5071502;28;20262;-53
2022/01/25 11:55:25;;;;;;;17.13;10.30;;;;;;;4.58;100.00;102707.66;5078624;27;20234;-51
2022/01/25 11:57:54;;;;;;;18.60;10.97;;;;;;;4.71;100.00;102705.81;5079812;28;20789;-57
2022/01/25 12:00:22;;;;;;;17.37;10.03;;;;;;;4.62;100.00;102705.28;5070454;28;20151;-50
2022/01/25 12:02:50;;;;;;;18.23;11.27;;;;;;;4.64;100.00;102695.00;5079919;28;20798;-52
2022/01/25 12:05:24;;;;;;;16.07;11.03;;;;;;;4.65;100.00;102702.88;5076549;27;20229;-53
2022/01/25 12:08:08;;;;;;;20.03;9.33;;;;;;;4.73;100.00;102706.75;5079714;28;21427;-53
2022/01/25 12:10:39;;;;;;;18.90;10.10;;;;;;;4.77;100.00;102700.03;5072365;28;20237;-51
2022/01/25 12:13:17;;;;;;;16.90;10.40;;;;;;;4.81;100.00;102699.41;5072540;27;20613;-55
2022/01/25 12:15:44;;;;;;;14.70;10.03;;;;;;;4.81;100.00;102693.28;5070083;28;20303;-51
2022/01/25 12:18:11;;;;;;;17.33;8.83;;;;;;;4.73;100.00;102695.47;5083553;28;20237;-53
2022/01/25 12:20:48;;;;;;;15.10;9.17;;;;;;;4.74;100.00;102694.69;5076033;28;20231;-53
2022/01/25 12:23:19;;;;;;;18.83;10.93;;;;;;;4.71;100.00;102689.31;5087421;28;20272;-54